createdAt,value
2018-11-27T00:00:33.252Z,76.60
2018-11-27T00:03:04.104Z,79.00
2018-11-27T00:05:33.791Z,80.25
2018-11-27T00:08:02.257Z,79.75
2018-11-27T00:10:32.824Z,84.07
2018-11-27T00:13:01.141Z,82.42
2018-11-27T00:15:29.483Z,73.90
2018-11-27T00:17:58.751Z,66.12
2018-11-27T00:20:26.111Z,80.07
2018-11-27T00:22:54.462Z,73.35
2018-11-27T00:25:22.770Z,75.32
2018-11-27T00:27:51.083Z,66.55
2018-11-27T00:30:20.864Z,74.00
2018-11-27T00:32:49.214Z,66.47
2018-11-27T00:35:18.685Z,79.12
2018-11-27T00:37:46.987Z,72.03
2018-11-27T00:40:19.910Z,72.78
2018-11-27T00:42:49.188Z,78.35
2018-11-27T00:45:18.627Z,72.27
2018-11-27T00:47:47.842Z,65.62
2018-11-27T00:50:17.159Z,72.53
2018-11-27T00:52:45.481Z,68.70
2018-11-27T00:55:14.717Z,73.92
2018-11-27T00:57:43.655Z,68.52
2018-11-27T01:00:15.055Z,63.95
2018-11-27T01:02:43.393Z,71.42
2018-11-27T01:05:13.658Z,69.85
2018-11-27T01:07:42.081Z,80.15
2018-11-27T01:10:13.696Z,80.55
2018-11-27T01:12:42.015Z,79.12
2018-11-27T01:15:11.462Z,74.87
2018-11-27T01:17:41.005Z,79.03
2018-11-27T01:20:17.839Z,68.47
2018-11-27T01:22:46.188Z,71.82
2018-11-27T01:25:14.570Z,70.70
2018-11-27T01:27:42.876Z,65.67
2018-11-27T01:30:20.918Z,72.30
2018-11-27T01:32:49.526Z,79.65
2018-11-27T01:35:18.897Z,70.17
2018-11-27T01:37:47.930Z,72.22
2018-11-27T01:40:18.223Z,65.57
2018-11-27T01:42:47.459Z,65.95
2018-11-27T01:45:17.960Z,75.00
2018-11-27T01:47:46.376Z,70.25
2018-11-27T01:50:15.402Z,77.15
2018-11-27T01:52:43.762Z,66.65
2018-11-27T01:55:13.828Z,75.15
2018-11-27T01:57:42.147Z,64.37
2018-11-27T02:00:17.391Z,79.50
2018-11-27T02:02:45.704Z,69.40
2018-11-27T02:05:14.026Z,69.37
2018-11-27T02:07:42.398Z,63.50
2018-11-27T02:10:11.904Z,74.37
2018-11-27T02:12:41.099Z,66.75
2018-11-27T02:15:11.946Z,70.47
2018-11-27T02:17:40.282Z,71.35
2018-11-27T02:20:10.130Z,69.62
2018-11-27T02:22:38.467Z,63.08
2018-11-27T02:25:15.571Z,69.80
2018-11-27T02:27:43.911Z,68.70
2018-11-27T02:30:13.600Z,63.10
2018-11-27T02:32:42.018Z,69.20
2018-11-27T02:35:11.595Z,65.03
2018-11-27T02:37:39.956Z,66.62
2018-11-27T02:40:11.563Z,64.97
2018-11-27T02:42:40.044Z,64.17
2018-11-27T02:45:09.841Z,118.72
2018-11-27T02:47:38.564Z,89.20
2018-11-27T02:50:08.763Z,72.85
2018-11-27T02:52:37.076Z,74.72
2018-11-27T02:55:10.239Z,149.68
2018-11-27T02:57:38.535Z,91.28
2018-11-27T03:00:08.803Z,133.70
2018-11-27T03:02:37.105Z,113.37
2018-11-27T03:05:08.282Z,87.10
2018-11-27T03:07:36.603Z,79.70
2018-11-27T03:10:06.880Z,70.97
2018-11-27T03:12:35.200Z,87.57
2018-11-27T03:15:03.576Z,78.87
2018-11-27T03:17:32.646Z,80.10
2018-11-27T03:20:01.232Z,84.30
2018-11-27T03:22:29.539Z,79.87
2018-11-27T03:24:57.856Z,77.70
2018-11-27T03:27:26.308Z,68.05
2018-11-27T03:29:54.658Z,68.37
2018-11-27T03:32:22.980Z,75.75
2018-11-27T03:34:51.320Z,65.05
2018-11-27T03:37:19.620Z,76.28
2018-11-27T03:39:48.602Z,65.47
2018-11-27T03:42:17.861Z,70.42
2018-11-27T03:44:46.200Z,69.95
2018-11-27T03:47:14.526Z,60.10
2018-11-27T03:49:42.867Z,58.23
2018-11-27T03:52:11.158Z,64.85
2018-11-27T03:54:39.458Z,67.32
2018-11-27T03:57:07.759Z,69.77
2018-11-27T03:59:36.069Z,70.87
2018-11-27T04:02:04.391Z,73.70
2018-11-27T04:04:32.720Z,66.75
2018-11-27T04:07:01.036Z,59.20
2018-11-27T04:09:29.353Z,66.25
2018-11-27T04:11:57.670Z,58.48
2018-11-27T04:14:26.080Z,66.77
2018-11-27T04:16:54.546Z,72.75
2018-11-27T04:19:22.857Z,61.37
2018-11-27T04:21:51.152Z,61.28
2018-11-27T04:24:19.527Z,57.00
2018-11-27T04:26:47.839Z,57.90
2018-11-27T04:29:16.151Z,80.70
2018-11-27T04:31:44.455Z,66.72
2018-11-27T04:34:12.897Z,60.80
2018-11-27T04:36:41.643Z,58.25
2018-11-27T04:39:09.959Z,61.73
2018-11-27T04:41:38.253Z,64.03
2018-11-27T04:44:06.571Z,63.50
2018-11-27T04:46:34.873Z,66.17
2018-11-27T04:49:03.203Z,62.80
2018-11-27T04:51:32.173Z,62.67
2018-11-27T04:54:00.794Z,61.25
2018-11-27T04:56:29.107Z,65.60
2018-11-27T04:58:57.422Z,60.85
2018-11-27T05:01:25.770Z,55.43
2018-11-27T05:03:54.290Z,61.65
2018-11-27T05:06:22.590Z,59.42
2018-11-27T05:08:50.899Z,58.42
2018-11-27T05:11:19.232Z,52.93
2018-11-27T05:13:47.531Z,66.62
2018-11-27T05:16:15.831Z,55.65
2018-11-27T05:18:44.134Z,55.92
2018-11-27T05:21:12.452Z,60.67
2018-11-27T05:23:40.759Z,58.55
2018-11-27T05:26:09.054Z,66.55
2018-11-27T05:28:37.388Z,61.50
2018-11-27T05:31:05.722Z,67.15
2018-11-27T05:33:34.015Z,73.22
2018-11-27T05:36:02.328Z,53.42
2018-11-27T05:38:30.632Z,59.35
2018-11-27T05:40:58.936Z,76.57
2018-11-27T05:43:27.277Z,55.00
2018-11-27T05:45:55.585Z,61.63
2018-11-27T05:48:38.420Z,59.53
2018-11-27T05:51:06.789Z,62.25
2018-11-27T05:53:40.409Z,54.18
2018-11-27T05:56:08.751Z,65.08
2018-11-27T05:58:37.056Z,55.80
2018-11-27T06:01:05.756Z,67.05
2018-11-27T06:03:35.557Z,58.80
2018-11-27T06:06:03.883Z,55.70
2018-11-27T06:08:32.208Z,57.15
2018-11-27T06:11:01.687Z,54.95
2018-11-27T06:13:30.571Z,57.13
2018-11-27T06:15:58.933Z,52.70
2018-11-27T06:18:27.683Z,57.00
2018-11-27T06:20:56.610Z,58.83
2018-11-27T06:23:25.456Z,55.65
2018-11-27T06:25:55.107Z,50.12
2018-11-27T06:28:23.507Z,53.63
2018-11-27T06:30:51.826Z,54.38
2018-11-27T06:33:20.168Z,54.75
2018-11-27T06:35:48.495Z,56.90
2018-11-27T06:38:17.263Z,50.80
2018-11-27T06:40:45.594Z,55.50
2018-11-27T06:43:14.028Z,53.55
2018-11-27T06:45:43.300Z,51.20
2018-11-27T06:48:11.667Z,45.40
2018-11-27T06:50:40.081Z,49.88
2018-11-27T06:53:08.586Z,45.58
2018-11-27T06:55:38.103Z,42.53
2018-11-27T06:58:07.316Z,47.78
2018-11-27T07:00:35.586Z,46.85
2018-11-27T07:03:04.162Z,46.68
2018-11-27T07:05:33.279Z,54.05
2018-11-27T07:08:01.598Z,58.55
2018-11-27T07:10:31.082Z,56.58
2018-11-27T07:13:08.579Z,45.65
2018-11-27T07:15:36.885Z,51.98
2018-11-27T07:18:06.069Z,46.08
2018-11-27T07:20:34.387Z,40.20
2018-11-27T07:23:02.725Z,50.17
2018-11-27T07:25:31.016Z,55.05
2018-11-27T07:27:59.330Z,70.12
2018-11-27T07:30:27.756Z,55.85
2018-11-27T07:32:56.062Z,60.90
2018-11-27T07:35:24.366Z,63.23
2018-11-27T07:37:52.777Z,52.50
2018-11-27T07:40:22.179Z,51.63
2018-11-27T07:42:52.914Z,52.85
2018-11-27T07:45:21.779Z,48.90
2018-11-27T07:47:50.118Z,54.48
2018-11-27T07:50:18.634Z,52.45
2018-11-27T07:52:47.060Z,54.03
2018-11-27T07:55:16.524Z,50.40
2018-11-27T07:57:44.954Z,56.68
2018-11-27T08:00:17.071Z,51.13
2018-11-27T08:02:46.442Z,60.20
2018-11-27T08:05:19.105Z,60.28
2018-11-27T08:07:49.607Z,67.37
2018-11-27T08:10:18.904Z,62.70
2018-11-27T08:12:47.235Z,64.47
2018-11-27T08:15:17.382Z,50.08
2018-11-27T08:17:45.737Z,60.65
2018-11-27T08:20:15.334Z,49.98
2018-11-27T08:22:43.629Z,58.13
2018-11-27T08:25:14.106Z,57.38
2018-11-27T08:27:42.407Z,55.12
2018-11-27T08:30:12.899Z,54.30
2018-11-27T08:32:41.223Z,55.78
2018-11-27T08:35:14.500Z,56.15
2018-11-27T08:37:43.068Z,54.60
2018-11-27T08:40:15.400Z,54.05
2018-11-27T08:42:43.742Z,53.35
2018-11-27T08:45:14.098Z,50.70
2018-11-27T08:47:42.536Z,49.50
2018-11-27T08:50:14.796Z,47.23
2018-11-27T08:52:46.606Z,43.65
2018-11-27T08:55:16.481Z,43.73
2018-11-27T08:57:45.732Z,52.62
2018-11-27T09:00:18.108Z,47.62
2018-11-27T09:02:46.656Z,45.78
2018-11-27T09:05:15.172Z,52.00
2018-11-27T09:07:43.959Z,41.35
2018-11-27T09:10:13.670Z,48.38
2018-11-27T09:12:41.985Z,39.30
2018-11-27T09:15:11.918Z,41.55
2018-11-27T09:17:40.824Z,32.85
2018-11-27T09:20:11.710Z,31.05
2018-11-27T09:22:40.056Z,39.90
2018-11-27T09:25:10.776Z,36.88
2018-11-27T09:27:39.120Z,35.60
2018-11-27T09:30:23.171Z,27.75
2018-11-27T09:32:51.572Z,30.23
2018-11-27T09:35:19.891Z,28.32
2018-11-27T09:37:48.194Z,24.65
2018-11-27T09:40:17.764Z,30.50
2018-11-27T09:42:46.177Z,31.07
2018-11-27T09:45:17.592Z,33.20
2018-11-27T09:47:46.698Z,36.33
2018-11-27T09:50:15.511Z,30.25
2018-11-27T09:52:43.815Z,28.30
2018-11-27T09:55:14.102Z,26.40
2018-11-27T09:57:42.427Z,27.52
2018-11-27T10:00:12.582Z,26.27
2018-11-27T10:02:40.912Z,32.03
2018-11-27T10:05:09.980Z,23.27
2018-11-27T10:07:38.359Z,24.32
2018-11-27T10:10:08.498Z,28.10
2018-11-27T10:12:36.819Z,24.47
2018-11-27T10:15:22.087Z,27.80
2018-11-27T10:17:51.607Z,24.15
2018-11-27T10:20:20.806Z,28.40
2018-11-27T10:22:49.144Z,25.30
2018-11-27T10:25:17.451Z,31.07
2018-11-27T10:27:45.873Z,27.85
2018-11-27T10:30:22.037Z,24.95
2018-11-27T10:32:51.330Z,35.03
2018-11-27T10:35:24.724Z,25.72
2018-11-27T10:37:53.071Z,24.45
2018-11-27T10:40:21.379Z,25.43
2018-11-27T10:42:49.774Z,16.87
2018-11-27T10:45:18.960Z,21.93
2018-11-27T10:47:48.765Z,25.50
2018-11-27T10:50:17.480Z,19.42
2018-11-27T10:52:46.912Z,26.82
2018-11-27T10:55:16.207Z,23.12
2018-11-27T10:57:44.671Z,22.73
2018-11-27T11:00:22.180Z,22.45
2018-11-27T11:02:55.945Z,21.60
2018-11-27T11:05:27.811Z,23.05
2018-11-27T11:07:55.764Z,22.77
2018-11-27T11:10:24.131Z,28.98
2018-11-27T11:12:52.438Z,25.57
2018-11-27T11:15:20.767Z,24.67
2018-11-27T11:17:49.103Z,24.95
2018-11-27T11:20:17.677Z,22.48
2018-11-27T11:22:46.019Z,25.72
2018-11-27T11:25:15.579Z,25.82
2018-11-27T11:27:44.439Z,23.98
2018-11-27T11:30:15.619Z,30.55
2018-11-27T11:32:44.778Z,25.32
2018-11-27T11:35:13.263Z,23.77
2018-11-27T11:37:41.856Z,26.87
2018-11-27T11:40:15.352Z,24.50
2018-11-27T11:42:43.715Z,39.80
2018-11-27T11:45:12.354Z,23.40
2018-11-27T11:47:40.900Z,25.02
2018-11-27T11:50:14.091Z,19.62
2018-11-27T11:52:45.473Z,25.77
2018-11-27T11:55:13.382Z,29.60
2018-11-27T11:57:42.115Z,25.37
2018-11-27T12:00:13.659Z,25.73
2018-11-27T12:02:41.980Z,23.80
2018-11-27T12:05:11.163Z,20.53
2018-11-27T12:07:39.509Z,21.87
2018-11-27T12:10:10.841Z,20.43
2018-11-27T12:12:39.127Z,21.40
2018-11-27T12:15:11.462Z,23.53
2018-11-27T12:17:40.132Z,19.50
2018-11-27T12:20:10.244Z,20.43
2018-11-27T12:22:38.846Z,26.50
2018-11-27T12:25:09.390Z,20.33
2018-11-27T12:27:37.839Z,20.40
2018-11-27T12:30:24.731Z,16.33
2018-11-27T12:32:53.175Z,21.83
2018-11-27T12:35:22.053Z,26.60
2018-11-27T12:37:51.199Z,19.93
2018-11-27T12:40:24.753Z,22.80
2018-11-27T12:42:53.525Z,16.85
2018-11-27T12:45:25.815Z,16.52
2018-11-27T12:47:54.806Z,18.45
2018-11-27T12:50:25.115Z,14.07
2018-11-27T12:52:53.493Z,16.33
2018-11-27T12:55:22.888Z,13.37
2018-11-27T12:57:51.235Z,14.00
2018-11-27T13:00:21.739Z,17.57
2018-11-27T13:02:50.238Z,17.25
2018-11-27T13:05:21.668Z,15.75
2018-11-27T13:07:51.555Z,16.35
2018-11-27T13:10:19.872Z,17.98
2018-11-27T13:12:48.188Z,16.15
2018-11-27T13:15:17.574Z,16.20
2018-11-27T13:17:46.331Z,17.98
2018-11-27T13:20:15.710Z,20.37
2018-11-27T13:22:44.104Z,17.57
2018-11-27T13:25:17.408Z,13.78
2018-11-27T13:27:45.874Z,17.07
2018-11-27T13:30:15.610Z,16.97
2018-11-27T13:32:44.638Z,18.07
2018-11-27T13:35:13.336Z,16.57
2018-11-27T13:37:41.767Z,22.00
2018-11-27T13:40:11.374Z,18.75
2018-11-27T13:42:40.250Z,16.70
2018-11-27T13:45:10.419Z,15.08
2018-11-27T13:47:38.797Z,64.65
2018-11-27T13:50:11.276Z,22.85
2018-11-27T13:52:39.736Z,17.15
2018-11-27T13:55:13.166Z,19.17
2018-11-27T13:57:41.475Z,19.27
2018-11-27T14:00:15.959Z,16.07
2018-11-27T14:02:46.116Z,16.15
2018-11-27T14:05:15.905Z,17.62
2018-11-27T14:07:44.240Z,22.52
2018-11-27T14:10:12.753Z,17.82
2018-11-27T14:12:41.055Z,18.42
2018-11-27T14:15:14.084Z,19.27
2018-11-27T14:17:42.458Z,20.25
2018-11-27T14:20:10.857Z,22.30
2018-11-27T14:22:39.238Z,16.10
2018-11-27T14:25:09.299Z,13.60
2018-11-27T14:27:37.714Z,17.15
2018-11-27T14:30:09.368Z,19.75
2018-11-27T14:32:37.647Z,18.30
2018-11-27T14:35:06.347Z,16.20
2018-11-27T14:37:34.676Z,21.37
2018-11-27T14:40:03.183Z,24.32
2018-11-27T14:42:32.155Z,18.10
2018-11-27T14:45:00.531Z,18.92
2018-11-27T14:47:28.939Z,17.05
2018-11-27T14:50:04.086Z,21.00
2018-11-27T14:52:27.780Z,19.87
2018-11-27T14:54:56.862Z,15.68
2018-11-27T14:57:25.169Z,21.30
2018-11-27T14:59:53.516Z,18.40
2018-11-27T15:02:21.879Z,21.82
2018-11-27T15:04:50.206Z,20.37
2018-11-27T15:07:18.515Z,18.17
2018-11-27T15:09:46.851Z,21.27
2018-11-27T15:12:15.122Z,21.30
2018-11-27T15:14:43.431Z,22.55
2018-11-27T15:17:11.770Z,22.32
2018-11-27T15:19:40.128Z,20.62
2018-11-27T15:22:08.452Z,25.92
2018-11-27T15:24:36.795Z,26.82
2018-11-27T15:27:05.147Z,30.65
2018-11-27T15:29:33.520Z,24.87
2018-11-27T15:32:01.956Z,24.20
2018-11-27T15:34:30.353Z,27.90
2018-11-27T15:36:58.695Z,26.35
2018-11-27T15:39:27.027Z,25.30
2018-11-27T15:41:55.398Z,24.45
2018-11-27T15:44:23.727Z,24.57
2018-11-27T15:46:52.071Z,30.20
2018-11-27T15:49:20.370Z,25.68
2018-11-27T15:51:48.695Z,25.97
2018-11-27T15:54:17.929Z,59.35
2018-11-27T15:56:46.254Z,34.05
2018-11-27T15:59:14.545Z,31.35
2018-11-27T16:01:42.862Z,30.90
2018-11-27T16:04:11.160Z,30.40
2018-11-27T16:06:39.456Z,32.03
2018-11-27T16:09:10.129Z,30.97
2018-11-27T16:11:39.131Z,26.48
2018-11-27T16:14:07.758Z,29.27
2018-11-27T16:16:36.087Z,33.18
2018-11-27T16:19:04.424Z,31.48
2018-11-27T16:21:32.799Z,34.70
2018-11-27T16:24:01.114Z,33.02
2018-11-27T16:26:29.496Z,38.50
2018-11-27T16:28:57.806Z,34.15
2018-11-27T16:31:26.141Z,37.23
2018-11-27T16:33:54.888Z,33.90
2018-11-27T16:36:23.201Z,32.45
2018-11-27T16:38:52.295Z,34.83
2018-11-27T16:41:20.610Z,32.10
2018-11-27T16:43:48.900Z,42.17
2018-11-27T16:46:17.211Z,46.37
2018-11-27T16:48:45.524Z,53.40
2018-11-27T16:51:13.895Z,46.83
2018-11-27T16:53:42.287Z,36.25
2018-11-27T16:56:11.385Z,36.20
2018-11-27T16:58:39.696Z,33.28
2018-11-27T17:01:09.272Z,30.05
2018-11-27T17:03:36.709Z,28.02
2018-11-27T17:06:05.110Z,28.92
2018-11-27T17:08:33.450Z,27.13
2018-11-27T17:11:02.389Z,23.55
2018-11-27T17:13:38.107Z,30.02
2018-11-27T17:16:06.529Z,25.82
2018-11-27T17:18:34.912Z,25.48
2018-11-27T17:21:03.483Z,25.12
2018-11-27T17:23:31.838Z,29.07
2018-11-27T17:26:04.031Z,30.88
2018-11-27T17:28:30.674Z,29.00
2018-11-27T17:31:06.751Z,31.00
2018-11-27T17:33:37.795Z,36.88
2018-11-27T17:36:08.026Z,33.15
2018-11-27T17:38:41.173Z,31.00
2018-11-27T17:41:10.311Z,27.58
2018-11-27T17:43:39.090Z,26.95
2018-11-27T17:46:08.081Z,28.10
2018-11-27T17:48:38.134Z,24.47
2018-11-27T17:51:07.643Z,24.43
2018-11-27T17:53:37.079Z,27.50
2018-11-27T17:56:05.543Z,23.52
2018-11-27T17:58:33.860Z,21.95
2018-11-27T18:01:06.398Z,25.62
2018-11-27T18:03:35.420Z,24.12
2018-11-27T18:06:04.581Z,26.82
2018-11-27T18:08:32.954Z,27.50
2018-11-27T18:11:15.737Z,36.53
2018-11-27T18:13:44.726Z,35.20
2018-11-27T18:16:13.055Z,29.75
2018-11-27T18:18:50.480Z,32.08
2018-11-27T18:21:18.836Z,31.20
2018-11-27T18:23:47.134Z,38.53
2018-11-27T18:26:15.447Z,40.67
2018-11-27T18:28:43.790Z,27.42
2018-11-27T18:31:12.105Z,27.20
2018-11-27T18:33:40.392Z,35.43
2018-11-27T18:36:08.795Z,33.15
2018-11-27T18:38:37.104Z,36.17
2018-11-27T18:41:05.811Z,30.50
2018-11-27T18:43:34.122Z,33.13
2018-11-27T18:46:02.434Z,35.03
2018-11-27T18:48:30.731Z,28.62
2018-11-27T18:51:06.992Z,31.60
2018-11-27T18:53:35.738Z,34.73
2018-11-27T18:56:04.059Z,33.40
2018-11-27T18:58:32.401Z,31.35
2018-11-27T19:01:00.751Z,31.62
2018-11-27T19:03:29.127Z,41.18
2018-11-27T19:05:57.414Z,35.30
2018-11-27T19:08:27.208Z,48.80
2018-11-27T19:10:55.748Z,32.48
2018-11-27T19:13:24.078Z,36.25
2018-11-27T19:15:52.363Z,43.13
2018-11-27T19:18:24.100Z,37.28
2018-11-27T19:20:54.001Z,36.90
2018-11-27T19:23:23.522Z,35.23
2018-11-27T19:25:52.223Z,35.40
2018-11-27T19:28:25.784Z,37.70
2018-11-27T19:30:55.274Z,34.45
2018-11-27T19:33:29.279Z,37.38
2018-11-27T19:35:58.444Z,33.98
2018-11-27T19:38:26.870Z,38.73
2018-11-27T19:40:55.311Z,34.78
2018-11-27T19:43:24.450Z,41.37
2018-11-27T19:45:55.800Z,33.67
2018-11-27T19:48:24.435Z,40.92
2018-11-27T19:50:53.623Z,38.78
2018-11-27T19:53:22.003Z,40.67
2018-11-27T19:55:50.303Z,35.58
2018-11-27T19:58:19.634Z,39.88
2018-11-27T20:00:48.631Z,46.75
2018-11-27T20:03:17.314Z,39.50
2018-11-27T20:05:45.688Z,42.10
2018-11-27T20:08:18.414Z,40.05
2018-11-27T20:10:47.827Z,38.65
2018-11-27T20:13:16.169Z,36.35
2018-11-27T20:15:44.967Z,35.28
2018-11-27T20:18:13.309Z,34.80
2018-11-27T20:20:41.690Z,40.28
2018-11-27T20:23:11.267Z,37.85
2018-11-27T20:25:39.559Z,36.63
2018-11-27T20:28:08.896Z,34.23
2018-11-27T20:30:38.656Z,33.78
2018-11-27T20:33:07.183Z,38.70
2018-11-27T20:35:35.553Z,43.87
2018-11-27T20:38:07.339Z,43.65
2018-11-27T20:40:35.647Z,43.73
2018-11-27T20:43:03.947Z,44.00
2018-11-27T20:45:32.288Z,48.25
2018-11-27T20:48:02.920Z,37.55
2018-11-27T20:50:31.284Z,34.55
2018-11-27T20:52:59.618Z,39.92
2018-11-27T20:55:27.927Z,38.63
2018-11-27T20:57:58.250Z,47.10
2018-11-27T21:00:30.161Z,46.20
2018-11-27T21:03:00.495Z,51.48
2018-11-27T21:05:28.843Z,45.80
2018-11-27T21:07:57.235Z,39.08
2018-11-27T21:10:25.559Z,42.67
2018-11-27T21:12:53.948Z,38.40
2018-11-27T21:15:22.474Z,39.88
2018-11-27T21:17:50.838Z,40.67
2018-11-27T21:20:19.631Z,39.98
2018-11-27T21:22:47.591Z,38.90
2018-11-27T21:25:22.790Z,39.18
2018-11-27T21:28:01.407Z,40.45
2018-11-27T21:30:29.733Z,49.27
2018-11-27T21:32:59.173Z,40.38
2018-11-27T21:35:27.641Z,40.30
2018-11-27T21:37:57.670Z,38.92
2018-11-27T21:40:26.126Z,44.27
2018-11-27T21:42:55.271Z,40.75
2018-11-27T21:45:25.735Z,42.53
2018-11-27T21:47:54.721Z,42.48
2018-11-27T21:50:28.571Z,45.08
2018-11-27T21:52:57.548Z,44.10
2018-11-27T21:55:25.844Z,47.20
2018-11-27T21:57:54.176Z,40.33
2018-11-27T22:00:23.939Z,47.50
2018-11-27T22:02:52.406Z,44.00
2018-11-27T22:05:22.003Z,47.75
2018-11-27T22:07:51.725Z,49.08
2018-11-27T22:10:21.351Z,43.90
2018-11-27T22:12:55.268Z,41.53
2018-11-27T22:15:39.361Z,36.90
2018-11-27T22:18:08.645Z,38.78
2018-11-27T22:20:36.990Z,47.38
2018-11-27T22:23:06.061Z,36.85
2018-11-27T22:25:34.373Z,47.80
2018-11-27T22:28:03.077Z,42.08
2018-11-27T22:30:31.386Z,45.20
2018-11-27T22:32:59.709Z,47.40
2018-11-27T22:35:28.021Z,41.63
2018-11-27T22:37:56.329Z,37.13
2018-11-27T22:40:25.641Z,46.50
2018-11-27T22:42:55.171Z,51.00
2018-11-27T22:45:28.676Z,37.60
2018-11-27T22:47:57.015Z,45.05
2018-11-27T22:50:25.342Z,51.25
2018-11-27T22:52:53.688Z,49.08
2018-11-27T22:55:22.032Z,45.03
2018-11-27T22:57:50.391Z,38.20
2018-11-27T23:00:28.691Z,45.23
2018-11-27T23:02:57.064Z,42.55
2018-11-27T23:05:25.751Z,46.60
2018-11-27T23:07:54.083Z,44.73
2018-11-27T23:10:22.406Z,46.28
2018-11-27T23:12:50.783Z,44.80
2018-11-27T23:15:20.382Z,41.85
2018-11-27T23:17:48.811Z,46.73
2018-11-27T23:20:18.024Z,43.25
2018-11-27T23:22:46.343Z,45.80
2018-11-27T23:25:15.823Z,43.83
2018-11-27T23:27:44.168Z,42.67
2018-11-27T23:30:17.456Z,46.42
2018-11-27T23:32:45.840Z,42.93
2018-11-27T23:35:14.167Z,43.25
2018-11-27T23:37:42.477Z,51.83
2018-11-27T23:40:11.679Z,44.65
2018-11-27T23:42:40.171Z,42.80
2018-11-27T23:45:12.547Z,53.92
2018-11-27T23:47:40.855Z,45.23
2018-11-27T23:50:14.181Z,50.10
2018-11-27T23:52:42.703Z,53.33
2018-11-27T23:55:11.853Z,46.98
2018-11-27T23:57:40.487Z,45.75
